Time;durP1;ratioP1;P1;durP2;ratioP2;P2;SDS_P1;SDS_P2;PMS_P1;PMS_P2;Temp;Humidity;BMP_temperature;BMP_pressure;BME280_temperature;BME280_humidity;BME280_pressure;Samples;Min_cycle;Max_cycle;Signal;HPM_P1;HPM_P2
2023/05/07 00:02:34;;;;;;;7.05;5.20;;;15.40;99.90;;;13.97;90.49;100100.91;10421123;27;99256;-89
2023/05/07 00:07:38;;;;;;;8.25;4.95;;;15.30;99.90;;;13.91;90.41;100105.19;10383289;27;96603;-89
2023/05/07 00:12:41;;;;;;;7.67;5.77;;;15.30;99.90;;;13.86;90.58;100096.94;10391698;28;96530;-89
2023/05/07 00:17:44;;;;;;;7.85;5.57;;;15.30;99.90;;;13.82;90.52;100103.66;10430616;27;96584;-89
2023/05/07 00:22:47;;;;;;;7.20;5.03;;;15.20;99.90;;;13.78;91.02;100101.56;10444251;27;98493;-89
2023/05/07 00:27:50;;;;;;;6.38;5.10;;;15.20;99.90;;;13.74;91.34;100102.97;10387802;27;98078;-89
2023/05/07 00:32:53;;;;;;;5.80;4.97;;;15.10;99.90;;;13.71;91.54;100106.00;10442085;27;96755;-89
2023/05/07 00:37:58;;;;;;;9.85;5.93;;;15.00;99.90;;;13.70;91.79;100104.38;10474029;27;96772;-90
2023/05/07 00:43:01;;;;;;;7.75;5.18;;;15.00;99.90;;;13.74;91.65;100105.66;10389006;28;96650;-89
2023/05/07 00:48:04;;;;;;;7.23;5.10;;;15.10;99.90;;;13.76;91.76;100108.94;10425530;27;96849;-90
2023/05/07 00:53:07;;;;;;;9.95;7.13;;;15.10;99.90;;;13.79;91.73;100101.34;10426514;27;96865;-89
2023/05/07 00:58:10;;;;;;;8.07;5.40;;;15.20;99.90;;;13.85;91.58;100102.44;10420992;27;98654;-89
2023/05/07 01:03:14;;;;;;;5.68;4.25;;;15.20;99.90;;;13.90;91.51;100100.84;10452592;27;98267;-89
2023/05/07 01:08:18;;;;;;;7.65;5.03;;;15.20;99.90;;;13.94;91.51;100106.66;10386851;27;96940;-89
2023/05/07 01:13:23;;;;;;;6.93;5.28;;;15.30;99.90;;;13.91;91.22;100110.53;10385321;28;96520;-89
2023/05/07 01:18:28;;;;;;;5.90;4.95;;;15.30;99.90;;;13.92;91.57;100119.38;10397677;27;96639;-90
2023/05/07 01:23:33;;;;;;;7.13;5.70;;;15.30;99.90;;;13.96;91.63;100125.16;10387759;27;97156;-89
2023/05/07 01:28:36;;;;;;;6.80;4.90;;;15.30;99.90;;;13.95;91.52;100116.31;10475948;27;97187;-89
2023/05/07 01:33:41;;;;;;;5.22;4.72;;;15.30;99.90;;;13.90;90.80;100102.69;10434244;27;96645;-89
2023/05/07 01:38:45;;;;;;;7.50;5.07;;;15.30;99.90;;;13.78;90.73;100106.91;10394298;27;96604;-89
2023/05/07 01:43:50;;;;;;;6.70;4.90;;;15.20;99.90;;;13.74;91.41;100116.31;10401777;28;96613;-89
2023/05/07 01:48:54;;;;;;;9.60;6.55;;;15.10;99.90;;;13.70;91.66;100104.38;10407438;28;97015;-89
2023/05/07 01:53:57;;;;;;;8.55;5.38;;;15.10;99.90;;;13.65;91.56;100099.59;10435369;27;96730;-88
2023/05/07 01:59:01;;;;;;;16.40;8.83;;;15.10;99.90;;;13.58;91.21;100101.38;10422387;27;96583;-89
2023/05/07 02:04:04;;;;;;;28.70;14.10;;;14.90;99.90;;;13.55;91.91;100097.22;10418861;27;96606;-89
2023/05/07 02:09:08;;;;;;;24.03;11.83;;;14.90;99.90;;;13.51;91.87;100097.81;10408493;27;96545;-89
2023/05/07 02:14:11;;;;;;;15.15;9.25;;;14.90;99.90;;;13.48;91.63;100104.34;10424477;27;96928;-89
2023/05/07 02:19:15;;;;;;;17.40;10.10;;;14.80;99.90;;;13.42;91.89;100099.75;10436645;27;96654;-89
2023/05/07 02:24:18;;;;;;;9.73;6.53;;;14.80;99.90;;;13.38;91.87;100104.66;10430926;27;96971;-89
2023/05/07 02:29:21;;;;;;;23.97;13.27;;;14.70;99.90;;;13.36;91.75;100100.50;10416586;27;96633;-89
2023/05/07 02:34:23;;;;;;;14.73;9.30;;;14.70;99.90;;;13.29;92.23;100092.44;10412408;27;96877;-89
2023/05/07 02:39:27;;;;;;;11.13;7.10;;;14.60;99.90;;;13.29;92.62;100092.44;10429211;27;97536;-89
2023/05/07 02:44:31;;;;;;;6.18;5.10;;;14.60;99.90;;;13.26;92.66;100092.81;10398681;28;97440;-89
2023/05/07 02:49:34;;;;;;;9.80;6.53;;;14.60;99.90;;;13.29;93.00;100091.59;10398461;27;96788;-90
2023/05/07 02:54:37;;;;;;;9.65;6.78;;;14.60;99.90;;;13.29;92.81;100087.09;10422887;27;97702;-89
2023/05/07 02:59:41;;;;;;;12.47;8.83;;;14.70;99.90;;;13.32;93.09;100093.91;10403376;27;96788;-89
2023/05/07 03:04:44;;;;;;;11.77;7.53;;;14.60;99.90;;;13.31;93.22;100084.22;10434536;27;98273;-89
2023/05/07 03:09:47;;;;;;;11.65;7.05;;;14.70;99.90;;;13.34;93.12;100091.88;10385621;27;96838;-89
2023/05/07 03:14:51;;;;;;;6.35;5.35;;;14.70;99.90;;;13.34;93.19;100089.19;10433949;27;96632;-89
2023/05/07 03:19:54;;;;;;;6.85;5.18;;;14.70;99.90;;;13.38;93.19;100093.97;10422034;27;96783;-89
2023/05/07 03:24:57;;;;;;;6.53;4.10;;;14.80;99.90;;;13.42;93.26;100090.91;10394698;27;98157;-89
2023/05/07 03:30:00;;;;;;;5.88;4.75;;;14.80;99.90;;;13.43;93.36;100093.38;10451115;27;96511;-89
2023/05/07 03:35:04;;;;;;;9.23;6.55;;;14.90;99.90;;;13.44;93.19;100099.59;10398856;27;96711;-88
2023/05/07 03:40:10;;;;;;;5.75;3.78;;;14.90;99.90;;;13.45;92.90;100106.56;10434956;27;96731;-89
2023/05/07 03:45:14;;;;;;;6.47;5.70;;;14.90;99.90;;;13.38;93.00;100101.16;10431463;27;98878;-89
2023/05/07 03:50:17;;;;;;;7.57;5.60;;;14.80;99.90;;;13.38;93.06;100106.50;10516520;27;96995;-87
2023/05/07 03:55:20;;;;;;;4.50;3.95;;;14.80;99.90;;;13.34;92.65;100106.03;10465753;27;96302;-87
2023/05/07 04:00:23;;;;;;;4.25;3.78;;;14.80;99.90;;;13.27;92.66;100107.81;10456201;27;96565;-89
2023/05/07 04:05:26;;;;;;;4.17;3.30;;;14.70;99.90;;;13.21;91.96;100116.56;10428424;27;96541;-89
2023/05/07 04:10:30;;;;;;;3.75;2.80;;;14.60;99.90;;;13.12;92.02;100123.78;10429029;27;96680;-89
2023/05/07 04:15:32;;;;;;;4.13;2.80;;;14.50;99.90;;;13.05;92.34;100117.56;10397102;27;97106;-89
2023/05/07 04:20:36;;;;;;;3.53;3.23;;;14.40;99.90;;;13.02;92.38;100112.59;10410797;27;96970;-90
2023/05/07 04:25:39;;;;;;;5.20;3.47;;;14.40;99.90;;;13.02;92.38;100120.59;10425103;27;97652;-90
2023/05/07 04:30:42;;;;;;;5.93;4.50;;;14.40;99.90;;;13.06;92.60;100126.38;10390639;27;96810;-90
2023/05/07 04:35:46;;;;;;;5.87;4.10;;;14.40;99.90;;;13.14;93.03;100126.31;10428368;27;97388;-90
2023/05/07 04:40:49;;;;;;;6.60;5.13;;;14.50;99.90;;;13.23;93.29;100124.38;10423227;27;96645;-91
2023/05/07 04:45:52;;;;;;;5.80;4.00;;;14.60;99.90;;;13.38;93.46;100138.53;10432607;27;98817;-91
2023/05/07 04:50:55;;;;;;;7.75;5.97;;;14.70;99.90;;;13.53;93.88;100139.31;10410353;27;97556;-91
2023/05/07 04:55:59;;;;;;;8.50;6.82;;;14.80;99.90;;;13.69;94.08;100143.59;10429162;27;96584;-91
2023/05/07 05:01:02;;;;;;;9.80;6.75;;;15.00;99.90;;;13.82;94.20;100153.59;10448102;27;96705;-91
2023/05/07 05:06:05;;;;;;;7.63;6.40;;;15.10;99.90;;;13.96;94.22;100150.00;10429430;27;97038;-91
2023/05/07 05:11:08;;;;;;;7.72;6.13;;;15.30;99.90;;;14.11;94.16;100153.47;10450456;27;96630;-91
2023/05/07 05:16:11;;;;;;;8.18;5.90;;;15.40;99.90;;;14.34;94.36;100147.06;10439825;27;97249;-91
2023/05/07 05:21:14;;;;;;;5.45;4.15;;;15.60;99.90;;;14.58;93.72;100152.03;10418238;27;96581;-91
2023/05/07 05:26:18;;;;;;;4.68;3.92;;;15.80;99.90;;;14.78;92.70;100137.94;10452645;27;96568;-90
2023/05/07 05:31:21;;;;;;;4.82;3.70;;;16.10;99.90;;;15.15;92.82;100153.59;10407318;27;96576;-90
2023/05/07 05:36:24;;;;;;;5.93;3.95;;;16.30;99.90;;;15.41;89.97;100147.53;10422687;27;96607;-91
2023/05/07 05:41:27;;;;;;;8.07;5.90;;;16.50;99.90;;;15.50;88.56;100146.31;10392806;27;96616;-90
2023/05/07 05:46:30;;;;;;;9.50;7.85;;;16.70;99.90;;;15.57;88.25;100143.66;10411450;27;96532;-93
2023/05/07 05:51:34;;;;;;;11.65;7.15;;;16.80;99.90;;;15.64;89.26;100147.19;10424690;27;96543;-94
2023/05/07 05:56:37;;;;;;;10.90;8.80;;;16.90;99.90;;;15.77;88.79;100141.91;10408845;27;96589;-94
2023/05/07 06:01:40;;;;;;;9.93;6.95;;;17.10;99.90;;;15.97;88.03;100141.91;10427608;27;96575;-92
2023/05/07 06:06:43;;;;;;;8.82;6.20;;;17.20;99.90;;;16.18;86.59;100137.38;10412914;27;98601;-92
2023/05/07 06:11:46;;;;;;;9.73;7.00;;;17.50;99.90;;;16.34;85.40;100131.63;10406629;27;96657;-91
2023/05/07 06:16:49;;;;;;;11.00;8.10;;;17.60;99.90;;;16.54;85.26;100120.88;10396509;27;96580;-91
2023/05/07 06:21:52;;;;;;;8.65;7.60;;;17.80;99.90;;;16.75;84.75;100123.34;10422838;27;96469;-91
2023/05/07 06:26:55;;;;;;;10.15;7.57;;;18.00;99.90;;;16.95;83.90;100125.16;10408355;27;96601;-90
2023/05/07 06:32:10;;;;;;;10.18;7.43;;;18.20;99.90;;;17.12;82.35;100137.06;10440631;27;96923;-90
2023/05/07 06:37:14;;;;;;;9.48;7.00;;;18.50;99.90;;;17.38;82.51;100139.63;10412222;27;98357;-90
2023/05/07 06:42:17;;;;;;;7.57;6.18;;;18.70;99.90;;;17.74;81.33;100143.63;10387791;27;98531;-91
2023/05/07 06:47:20;;;;;;;7.43;6.28;;;19.00;99.90;;;18.02;78.78;100140.56;10421087;27;96616;-91
2023/05/07 06:52:23;;;;;;;6.20;4.72;;;19.40;99.90;;;18.18;76.80;100137.34;10384266;27;98486;-91
2023/05/07 06:57:26;;;;;;;7.00;5.68;;;19.50;99.90;;;18.40;76.50;100132.38;10437733;27;97474;-91
2023/05/07 07:02:29;;;;;;;5.55;4.40;;;19.70;99.90;;;18.68;74.17;100131.13;10386090;27;96980;-92
2023/05/07 07:07:33;;;;;;;4.70;3.85;;;20.00;99.90;;;18.92;72.44;100141.00;10399453;27;98429;-90
2023/05/07 07:12:36;;;;;;;6.25;3.22;;;20.20;99.90;;;19.21;71.12;100141.31;10433253;27;97542;-91
2023/05/07 07:17:39;;;;;;;4.15;2.67;;;20.50;99.90;;;19.25;68.38;100137.09;10398584;27;96592;-88
2023/05/07 07:22:43;;;;;;;4.22;3.38;;;20.60;99.90;;;19.37;67.85;100142.56;10457552;27;98526;-88
2023/05/07 07:27:46;;;;;;;4.80;3.75;;;20.80;99.90;;;19.51;66.55;100139.47;10393207;27;96632;-87
2023/05/07 07:32:49;;;;;;;3.78;2.95;;;20.90;99.90;;;19.61;67.82;100144.38;10398448;27;97273;-87
2023/05/07 07:37:52;;;;;;;3.40;2.10;;;20.90;99.90;;;19.60;65.42;100145.38;10413965;27;97504;-88
2023/05/07 07:42:56;;;;;;;2.45;1.85;;;21.00;99.90;;;19.61;64.55;100155.16;10409817;27;98252;-87
2023/05/07 07:47:59;;;;;;;1.80;1.45;;;21.00;99.00;;;19.70;64.02;100152.94;10421337;27;96586;-88
2023/05/07 07:53:02;;;;;;;1.88;1.40;;;21.10;98.20;;;19.79;63.13;100151.56;10399996;28;96897;-88
2023/05/07 07:58:05;;;;;;;4.45;1.77;;;21.10;98.00;;;19.98;62.14;100160.44;10411434;27;96673;-88
2023/05/07 08:03:11;;;;;;;2.83;1.80;;;21.30;97.40;;;20.10;60.86;100149.66;10425291;27;96876;-88
2023/05/07 08:08:15;;;;;;;8.40;2.47;;;21.40;96.40;;;20.10;59.00;100152.38;10420460;27;97122;-88
2023/05/07 08:13:18;;;;;;;2.55;1.77;;;21.50;95.60;;;20.05;58.38;100153.88;10413843;27;97144;-88
2023/05/07 08:18:23;;;;;;;2.10;1.30;;;21.50;95.00;;;19.98;59.10;100147.75;10448584;27;96450;-88
2023/05/07 08:23:25;;;;;;;2.03;1.40;;;21.40;94.70;;;19.96;60.01;100151.72;10397663;27;96632;-88
2023/05/07 08:28:28;;;;;;;4.22;1.58;;;21.40;94.70;;;19.93;60.00;100153.03;10449585;27;96504;-88
2023/05/07 08:33:31;;;;;;;2.70;1.63;;;21.40;94.70;;;19.92;60.82;100147.88;10426469;27;97487;-88
2023/05/07 08:38:34;;;;;;;1.50;1.13;;;21.30;94.70;;;20.01;60.93;100149.97;10419450;27;97166;-88
2023/05/07 08:43:45;;;;;;;2.08;1.80;;;21.50;94.70;;;20.11;60.11;100145.91;10408643;27;98328;-88
2023/05/07 08:48:50;;;;;;;2.25;1.40;;;21.50;94.30;;;20.27;61.58;100151.47;10437035;27;98438;-86
2023/05/07 08:53:53;;;;;;;2.60;1.88;;;21.60;94.60;;;20.38;60.88;100149.81;10415898;27;97306;-89
2023/05/07 08:58:58;;;;;;;4.65;2.40;;;21.80;94.50;;;20.46;63.54;100149.50;10432837;27;96645;-87
2023/05/07 09:04:01;;;;;;;4.57;2.75;;;21.80;95.10;;;20.47;63.48;100151.16;10415899;27;97870;-86
2023/05/07 09:09:05;;;;;;;4.55;3.40;;;21.90;95.40;;;20.51;63.68;100149.63;10384917;27;98387;-86
2023/05/07 09:14:08;;;;;;;4.20;3.70;;;21.90;95.70;;;20.74;64.68;100139.88;10405807;27;98619;-87
2023/05/07 09:19:11;;;;;;;4.60;3.50;;;22.00;96.30;;;21.04;63.82;100140.53;10424452;27;97599;-87
2023/05/07 09:24:16;;;;;;;4.38;3.75;;;22.20;96.50;;;21.18;63.74;100134.88;10414498;27;98307;-86
2023/05/07 09:29:19;;;;;;;4.90;3.35;;;22.40;96.10;;;21.33;63.10;100146.03;10389391;27;96979;-87
2023/05/07 09:34:22;;;;;;;6.00;4.05;;;22.40;95.80;;;21.30;61.29;100146.53;10430400;27;98501;-87
2023/05/07 09:39:25;;;;;;;2.95;2.60;;;22.40;95.00;;;21.31;61.18;100138.16;10424825;27;97379;-87
2023/05/07 09:44:29;;;;;;;2.92;2.28;;;22.40;94.80;;;21.45;59.84;100133.28;10407786;27;97064;-87
2023/05/07 09:49:36;;;;;;;3.33;3.00;;;22.60;94.50;;;21.41;58.86;100142.97;10435495;27;97361;-87
2023/05/07 09:54:43;;;;;;;4.43;2.50;;;22.60;93.60;;;21.53;58.79;100137.47;10402714;27;97437;-86
2023/05/07 09:59:49;;;;;;;3.72;2.70;;;22.70;93.50;;;21.69;57.06;100141.31;10403931;27;96683;-85
2023/05/07 10:04:55;;;;;;;3.22;2.60;;;22.90;92.70;;;21.60;53.61;100141.72;10410206;27;97340;-86
2023/05/07 10:09:59;;;;;;;2.97;2.40;;;22.80;90.50;;;21.45;55.73;100138.69;10410009;27;96761;-86
2023/05/07 10:15:07;;;;;;;2.63;2.30;;;22.60;90.90;;;21.40;56.39;100138.59;10406410;27;97191;-86
2023/05/07 10:20:11;;;;;;;3.05;2.50;;;22.60;91.10;;;21.40;56.84;100145.88;10420904;27;96786;-86
2023/05/07 10:25:25;;;;;;;3.95;2.47;;;22.50;91.30;;;21.39;55.46;100145.06;10395664;27;96666;-86
2023/05/07 10:30:31;;;;;;;4.65;3.00;;;22.50;90.70;;;21.34;56.53;100142.25;10418738;27;98403;-86
2023/05/07 10:35:45;;;;;;;3.75;2.50;;;22.50;90.90;;;21.27;56.28;100133.44;10412840;27;96928;-86
2023/05/07 10:40:48;;;;;;;2.42;2.22;;;22.40;91.00;;;21.14;54.62;100125.59;10393282;27;98358;-87
2023/05/07 10:46:18;;;;;;;2.75;2.00;;;22.30;90.40;;;21.07;55.80;100134.66;10470330;27;97479;-86
2023/05/07 10:51:22;;;;;;;3.45;1.90;;;22.30;90.30;;;21.07;56.24;100137.38;10464345;27;96507;-86
2023/05/07 10:56:26;;;;;;;4.03;2.15;;;22.30;90.50;;;20.96;55.06;100135.50;10415329;27;98568;-85
2023/05/07 11:02:03;;;;;;;4.80;2.50;;;22.30;89.60;;;20.98;55.58;100136.09;10375802;27;98097;-86
2023/05/07 11:07:08;;;;;;;4.60;2.47;;;22.20;89.40;;;21.53;55.00;100130.22;10419485;27;97768;-86
2023/05/07 11:12:11;;;;;;;3.35;1.90;;;22.70;89.70;;;21.83;51.21;100123.72;10425762;27;96740;-87
2023/05/07 11:17:14;;;;;;;2.40;1.90;;;23.00;85.60;;;22.21;49.82;100108.69;10388732;27;97737;-86
2023/05/07 11:22:32;;;;;;;2.42;1.70;;;23.30;84.10;;;22.53;47.46;100111.63;10404741;27;97863;-87
2023/05/07 11:27:36;;;;;;;2.40;1.50;;;23.70;78.90;;;22.70;46.70;100110.50;10399583;27;97224;-86
2023/05/07 11:32:39;;;;;;;3.38;1.85;;;23.90;78.20;;;22.90;47.46;100122.72;10380031;28;96665;-87
2023/05/07 11:37:44;;;;;;;2.00;1.70;;;24.10;77.80;;;22.76;46.31;100121.44;10389136;27;97433;-87
2023/05/07 11:42:48;;;;;;;2.20;1.80;;;24.00;76.10;;;22.44;46.29;100122.88;10341746;28;96819;-86
2023/05/07 11:47:53;;;;;;;2.45;2.00;;;23.70;75.70;;;22.03;47.48;100113.25;10362506;28;96711;-86
2023/05/07 11:52:56;;;;;;;3.35;2.05;;;23.30;76.20;;;21.77;49.88;100124.69;10413642;27;96542;-87
2023/05/07 11:57:59;;;;;;;4.05;2.22;;;23.00;78.20;;;21.64;50.40;100123.91;10423255;27;96519;-88
2023/05/07 12:03:05;;;;;;;3.92;2.10;;;22.80;79.40;;;21.91;48.38;100121.44;10411349;27;97312;-87
2023/05/07 12:08:17;;;;;;;3.15;1.98;;;23.10;77.40;;;22.16;48.57;100112.13;10434156;27;96657;-87
2023/05/07 12:13:23;;;;;;;3.83;1.67;;;23.30;77.10;;;22.44;48.64;100113.94;10440985;27;96535;-87
2023/05/07 12:18:27;;;;;;;3.25;2.00;;;23.60;76.80;;;22.78;46.72;100103.84;10428401;27;97778;-88
2023/05/07 12:23:31;;;;;;;1.73;1.50;;;24.00;75.00;;;23.31;44.96;100096.13;10416697;27;97249;-87
2023/05/07 12:28:38;;;;;;;2.42;1.38;;;24.80;72.30;;;23.50;43.40;100103.66;10413108;27;97348;-87
2023/05/07 12:33:42;;;;;;;2.20;1.35;;;25.20;68.80;;;24.04;42.40;100100.94;10407553;27;98121;-88
2023/05/07 12:38:45;;;;;;;2.95;1.60;;;25.80;68.20;;;24.19;42.00;100100.25;10412360;27;97534;-88
2023/05/07 12:43:48;;;;;;;2.95;1.95;;;26.00;65.90;;;23.83;42.45;100095.59;10395090;27;98638;-86
2023/05/07 12:48:52;;;;;;;4.28;2.10;;;25.50;66.40;;;23.37;43.08;100101.34;10432985;27;98230;-87
2023/05/07 12:53:57;;;;;;;3.35;1.70;;;24.80;66.80;;;22.85;42.90;100099.09;10435991;27;96654;-89
2023/05/07 12:59:00;;;;;;;1.95;1.40;;;24.20;66.60;;;23.20;44.76;100096.00;10375998;27;96659;-90
2023/05/07 13:04:05;;;;;;;2.03;1.55;;;24.40;68.90;;;23.75;42.16;100086.88;10453626;27;98236;-88
2023/05/07 13:09:08;;;;;;;1.77;1.60;;;24.90;66.80;;;23.89;42.35;100086.44;10432369;27;96613;-87
2023/05/07 13:14:11;;;;;;;2.22;1.35;;;25.00;66.50;;;23.83;42.28;100084.75;10411699;27;98762;-87
2023/05/07 13:19:15;;;;;;;2.17;1.52;;;24.90;66.70;;;23.74;43.38;100087.91;10407727;27;97094;-88
2023/05/07 13:24:18;;;;;;;2.25;1.40;;;24.70;67.40;;;23.53;42.71;100067.09;10394696;27;96680;-87
2023/05/07 13:29:28;;;;;;;2.30;2.00;;;24.60;66.80;;;23.01;42.73;100085.75;10401448;28;96771;-88
2023/05/07 13:34:31;;;;;;;2.50;1.90;;;24.10;66.40;;;22.64;43.50;100075.50;10405334;28;96548;-89
2023/05/07 13:39:34;;;;;;;3.65;2.30;;;23.80;66.60;;;22.47;44.04;100070.09;10441682;27;96576;-90
2023/05/07 13:44:37;;;;;;;3.25;2.42;;;23.60;67.30;;;22.48;43.97;100069.03;10419981;27;96635;-89
2023/05/07 13:49:40;;;;;;;3.13;1.80;;;23.60;67.00;;;22.79;43.65;100062.16;10457362;27;96529;-89
2023/05/07 13:54:43;;;;;;;4.45;1.80;;;23.90;66.60;;;23.27;42.93;100046.19;10444596;27;96653;-89
2023/05/07 13:59:46;;;;;;;2.03;1.60;;;24.60;65.60;;;23.70;41.14;100045.31;10384751;27;97162;-89
2023/05/07 14:04:49;;;;;;;3.72;1.60;;;25.30;63.80;;;24.00;38.66;100055.59;10383842;28;96535;-87
2023/05/07 14:09:52;;;;;;;3.25;1.17;;;25.90;60.50;;;24.52;39.93;100046.72;10427807;27;96598;-88
2023/05/07 14:14:56;;;;;;;1.88;1.50;;;26.50;61.00;;;24.96;37.79;100036.34;10409146;27;96676;-91
2023/05/07 14:19:59;;;;;;;3.97;1.83;;;27.20;58.80;;;25.26;37.26;100035.63;10415831;27;96492;-89
2023/05/07 14:25:02;;;;;;;2.30;1.63;;;27.50;57.90;;;25.54;37.19;100039.72;10442005;27;96907;-91
2023/05/07 14:30:16;;;;;;;2.58;1.85;;;27.60;57.90;;;25.47;35.50;100049.25;10452154;27;96469;-88
2023/05/07 14:35:19;;;;;;;2.22;1.55;;;27.50;55.50;;;25.37;37.35;100052.78;10423352;27;96527;-91
2023/05/07 14:40:22;;;;;;;2.10;1.60;;;27.30;56.80;;;25.40;36.55;100059.59;10421600;27;96473;-90
2023/05/07 14:45:25;;;;;;;2.53;2.03;;;27.20;56.40;;;25.44;36.64;100071.56;10441540;27;96453;-87
2023/05/07 14:50:29;;;;;;;3.58;2.63;;;27.30;56.40;;;25.33;37.12;100071.53;10438518;27;96807;-90
2023/05/07 14:55:32;;;;;;;2.90;2.13;;;27.20;56.30;;;25.16;36.76;100061.97;10383466;28;97278;-90
2023/05/07 15:00:37;;;;;;;5.22;2.60;;;27.00;55.80;;;24.90;38.36;100074.63;10402315;27;98052;-90
2023/05/07 15:05:41;;;;;;;3.60;2.88;;;26.70;56.80;;;24.43;38.11;100076.28;10424320;27;96865;-89
2023/05/07 15:10:44;;;;;;;3.40;2.70;;;26.20;56.70;;;24.15;38.78;100088.25;10422196;27;96673;-87
2023/05/07 15:15:47;;;;;;;2.80;2.45;;;25.80;57.10;;;23.82;39.58;100085.84;10441589;27;97088;-90
2023/05/07 15:20:50;;;;;;;3.30;2.38;;;25.40;57.80;;;23.92;39.42;100081.28;10416051;27;96593;-88
2023/05/07 15:25:53;;;;;;;3.05;2.20;;;25.50;58.20;;;23.92;38.43;100085.91;10439242;27;96569;-88
2023/05/07 15:30:57;;;;;;;3.35;2.20;;;25.50;57.70;;;23.88;39.51;100076.66;10406915;27;97895;-89
2023/05/07 15:36:00;;;;;;;2.90;2.15;;;25.40;58.00;;;23.73;38.58;100080.84;10423817;27;96542;-90
2023/05/07 15:41:03;;;;;;;3.20;1.77;;;25.30;57.60;;;23.68;39.22;100082.69;10436928;27;96535;-88
2023/05/07 15:46:06;;;;;;;2.70;2.08;;;25.10;57.70;;;23.60;38.75;100078.53;10372746;27;96432;-90
2023/05/07 15:51:10;;;;;;;5.40;2.08;;;25.00;57.50;;;23.65;39.24;100084.06;10446992;27;96875;-89
2023/05/07 15:56:13;;;;;;;3.55;2.60;;;24.90;57.90;;;23.37;39.19;100084.25;10389743;27;96508;-89
2023/05/07 16:01:16;;;;;;;3.78;2.08;;;24.70;57.90;;;23.06;39.65;100083.09;10462681;27;96538;-90
2023/05/07 16:06:19;;;;;;;3.47;1.90;;;24.30;58.10;;;22.72;39.28;100091.28;10431308;27;96514;-87
2023/05/07 16:11:22;;;;;;;3.33;1.83;;;24.10;58.10;;;22.43;39.74;100087.91;10462735;27;96623;-89
2023/05/07 16:16:28;;;;;;;2.03;1.58;;;23.90;58.30;;;22.33;40.37;100085.88;10444939;27;96495;-89
2023/05/07 16:21:32;;;;;;;3.08;1.60;;;23.80;58.60;;;22.23;40.30;100084.91;10429838;27;96623;-90
2023/05/07 16:26:35;;;;;;;1.92;1.40;;;23.70;58.40;;;22.05;40.27;100084.06;10427326;27;96541;-88
2023/05/07 16:31:38;;;;;;;3.50;1.48;;;23.50;58.70;;;21.74;41.17;100085.44;10429842;27;96363;-89
2023/05/07 16:36:41;;;;;;;3.05;1.50;;;23.10;59.40;;;21.44;42.09;100082.19;10412441;27;96571;-89
2023/05/07 16:41:47;;;;;;;1.52;1.17;;;22.80;60.10;;;21.16;42.92;100083.75;10427395;27;96537;-89
2023/05/07 16:46:52;;;;;;;4.45;1.27;;;22.50;60.60;;;20.85;43.70;100077.75;10408200;27;99267;-88
2023/05/07 16:51:55;;;;;;;2.72;1.27;;;22.20;61.70;;;20.63;44.63;100084.00;10447422;27;97529;-88
2023/05/07 16:56:58;;;;;;;4.25;1.42;;;21.90;62.70;;;20.30;45.26;100096.19;10411153;27;97685;-88
2023/05/07 17:02:01;;;;;;;1.85;1.10;;;21.50;63.50;;;19.93;45.06;100082.91;10394196;27;97348;-90
2023/05/07 17:07:05;;;;;;;2.58;1.58;;;21.30;63.90;;;19.73;46.15;100104.78;10419439;27;98983;-90
2023/05/07 17:12:08;;;;;;;1.83;1.23;;;20.90;64.60;;;19.50;47.06;100112.75;10396903;27;97393;-88
2023/05/07 17:17:11;;;;;;;2.17;1.20;;;20.70;65.10;;;19.28;46.69;100122.38;10412187;27;97383;-88
2023/05/07 17:22:14;;;;;;;1.45;0.95;;;20.50;65.30;;;19.03;47.52;100136.75;10420389;27;97340;-87
2023/05/07 17:27:18;;;;;;;6.03;2.03;;;20.20;65.90;;;18.74;47.88;100143.69;10421739;27;98358;-88
2023/05/07 17:32:21;;;;;;;5.93;3.22;;;19.90;66.10;;;18.46;48.29;100144.13;10443267;27;97282;-88
2023/05/07 17:37:24;;;;;;;4.85;2.88;;;19.70;66.90;;;18.16;48.42;100149.34;10398693;27;97356;-88
2023/05/07 17:42:32;;;;;;;5.30;2.53;;;19.40;67.30;;;17.90;48.89;100153.03;10430339;27;98360;-88
2023/05/07 17:47:35;;;;;;;2.95;1.83;;;19.20;67.80;;;17.67;49.33;100161.63;10442153;27;97338;-87
2023/05/07 17:52:40;;;;;;;3.35;2.22;;;18.90;68.20;;;17.41;50.47;100159.06;10411724;27;96856;-86
2023/05/07 17:57:43;;;;;;;4.82;2.50;;;18.60;68.90;;;17.18;51.26;100164.94;10424544;27;96566;-86
2023/05/07 18:02:46;;;;;;;6.82;3.42;;;18.40;70.00;;;16.91;52.23;100161.50;10415365;27;97570;-87
2023/05/07 18:07:49;;;;;;;6.30;2.63;;;18.10;70.90;;;16.72;52.91;100174.72;10436344;27;96839;-87
2023/05/07 18:12:52;;;;;;;7.00;3.50;;;18.00;71.60;;;16.50;53.97;100184.03;10420685;27;96615;-85
2023/05/07 18:17:56;;;;;;;9.60;5.68;;;17.70;72.70;;;16.33;54.43;100192.47;10389791;27;96402;-86
2023/05/07 18:22:59;;;;;;;5.57;3.22;;;17.50;73.40;;;16.15;55.07;100196.78;10410031;27;98190;-87
2023/05/07 18:28:02;;;;;;;7.05;4.68;;;17.40;73.90;;;16.02;55.36;100189.56;10432414;27;97203;-88
2023/05/07 18:33:06;;;;;;;4.50;3.38;;;17.30;74.40;;;15.88;56.07;100195.91;10426407;27;96672;-87
2023/05/07 18:38:09;;;;;;;4.43;3.38;;;17.10;75.00;;;15.74;56.11;100195.03;10425114;27;97031;-88
2023/05/07 18:43:13;;;;;;;3.47;3.00;;;17.00;75.20;;;15.67;56.88;100207.59;10412368;27;96751;-88
2023/05/07 18:48:16;;;;;;;4.82;3.50;;;16.90;75.50;;;15.56;57.25;100214.31;10427900;27;97338;-88
2023/05/07 18:53:19;;;;;;;4.22;3.15;;;16.80;75.70;;;15.51;57.44;100232.84;10435081;27;97848;-88
2023/05/07 18:58:23;;;;;;;4.43;3.03;;;16.70;75.80;;;15.49;57.55;100259.81;10398310;27;96688;-88
2023/05/07 19:03:26;;;;;;;3.80;2.78;;;16.70;76.10;;;15.44;57.93;100282.84;10422033;27;97867;-87
2023/05/07 19:08:29;;;;;;;3.83;2.67;;;16.70;76.20;;;15.41;58.22;100310.00;10443500;27;96693;-88
2023/05/07 19:13:33;;;;;;;5.55;3.53;;;16.70;76.50;;;15.33;58.70;100318.22;10415819;27;96656;-88
2023/05/07 19:18:36;;;;;;;5.10;3.78;;;16.60;76.80;;;15.20;62.12;100341.19;10399925;27;96761;-88
2023/05/07 19:23:43;;;;;;;5.38;2.90;;;16.60;78.80;;;15.03;65.03;100352.38;10393253;27;97058;-88
2023/05/07 19:28:48;;;;;;;6.38;3.35;;;16.40;81.30;;;14.82;66.58;100370.09;10423211;27;97475;-89
2023/05/07 19:34:14;;;;;;;5.38;3.22;;;16.20;83.20;;;14.57;67.91;100374.97;10390421;27;98043;-87
2023/05/07 19:39:17;;;;;;;6.28;3.00;;;16.10;85.30;;;14.47;68.22;100387.00;10416137;27;96662;-88
2023/05/07 19:44:22;;;;;;;4.70;2.97;;;15.90;85.70;;;14.32;69.08;100390.50;10441180;27;97463;-86
2023/05/07 19:49:25;;;;;;;4.32;2.65;;;15.80;86.50;;;14.22;69.23;100402.53;10393368;27;96711;-87
2023/05/07 19:54:28;;;;;;;3.92;2.80;;;15.70;87.00;;;14.13;69.16;100407.13;10426759;27;96605;-89
2023/05/07 19:59:31;;;;;;;6.78;3.03;;;15.60;87.80;;;14.02;68.51;100421.78;10394914;27;96633;-87
2023/05/07 20:04:36;;;;;;;3.63;2.60;;;15.40;88.00;;;13.87;68.38;100432.47;10417353;27;96748;-89
2023/05/07 20:09:40;;;;;;;4.63;2.15;;;15.30;87.90;;;13.72;67.80;100423.59;10427281;27;96655;-88
2023/05/07 20:14:43;;;;;;;5.68;3.60;;;15.20;87.70;;;13.62;67.72;100439.09;10419664;27;97056;-88
2023/05/07 20:19:46;;;;;;;8.10;4.30;;;15.00;87.60;;;13.53;67.76;100442.84;10417615;27;96744;-89
2023/05/07 20:24:49;;;;;;;4.57;2.57;;;14.90;87.70;;;13.47;67.54;100452.38;10419161;27;96717;-89
2023/05/07 20:29:52;;;;;;;6.40;3.37;;;14.90;87.70;;;13.39;67.64;100463.16;10418405;27;98092;-89
2023/05/07 20:34:55;;;;;;;3.97;2.30;;;14.80;88.00;;;13.25;67.09;100463.91;10413027;27;97026;-88
2023/05/07 20:39:59;;;;;;;3.60;2.22;;;14.70;87.90;;;13.12;67.01;100461.81;10412038;27;96543;-88
2023/05/07 20:45:03;;;;;;;2.90;1.83;;;14.50;87.90;;;13.05;67.04;100471.53;10447165;27;97047;-88
2023/05/07 20:50:06;;;;;;;6.77;2.53;;;14.50;88.00;;;12.92;67.08;100461.44;10447441;27;96740;-89